Loogootee, IN

10:30 AM EDT on April 27, 2017 (GMT -0400)
MIN014 | | Change Station

Elev 524 ft 38.66 °N, 86.91 °W | Updated 2 minutes ago

Overcast
Overcast
54.0 °F
Feels Like 54.0 °F
N
7.0
Wind Variable Wind from West
Gusts 9.0 mph

Today
High -- | Low -- °F
--% Chance of Precip.
Yesterday
High -- | Low -- °F
Precip. -- in
Pressure 29.67 in
Visibility 10.0 miles
Clouds Overcast 1400 ft
Dew Point 48.0 °F
Humidity 81%
Rainfall 0.18 in
Snow Depth Not available.
6:54 AM 8:36 PM
New Moon, 2% visible
METAR KDCY 271415Z AUTO 27012G15KT 10SM OVC014 11/08 A2967 RMK AO2 T01100082
Pressure 29.67 in
Visibility 10.0 miles
Clouds Overcast 1400 ft
Dew Point 48.0 °F
Humidity 81%
Rainfall 0.18 in
Snow Depth Not available.
6:54 AM 8:36 PM
New Moon, 2% visible
METAR KDCY 271415Z AUTO 27012G15KT 10SM OVC014 11/08 A2967 RMK AO2 T01100082

Get Severe Weather Alerts

Thanks for signing up!

Be on the lookout for a verification email in your inbox.

You'll start receiving the daily forecast at 8 AM.

×

10-Day Weather Forecast

Almanac

Astronomy

Apr. 27, 2017 Rise Set
Actual Time
Civil Twilight
Nautical Twilight
Astronomical Twilight
Moon
Length of Visible Light
Length of Day
Tomorrow will be .
, % of the Moon is Illuminated

Today's Extremes

State Highs State Lows

Community

WunderPhotos

WunderBlog® & News

Nearby

Air Quality

  Air Quality AQ Index Pollutant
Not available.

Snow Depth

Station Depth Elevation

Earthquake Activity

City Distance Mag. Time & Date
Minimum magnitude displayed is 2.5.

Coastal Water Temperatures

Place Temperature

Stations

Nearby Weather Stations

Station Location Temp. Windchill Dew Point Humidity Wind Precip. Elev Updated Type
                   

Watches & Warnings

There are currently no watches in effect.